sensor_id;sensor_type;location;lat;lon;timestamp;P1;durP1;ratioP1;P2;durP2;ratioP2
35971;SDS011;22052;0.000;0.000;2022-08-19T00:01:15;7.55;;;3.17;;
35971;SDS011;22052;0.000;0.000;2022-08-19T00:03:48;5.57;;;2.95;;
35971;SDS011;22052;0.000;0.000;2022-08-19T00:06:20;8.30;;;3.60;;
35971;SDS011;22052;0.000;0.000;2022-08-19T00:08:51;8.43;;;3.25;;
35971;SDS011;22052;0.000;0.000;2022-08-19T00:11:26;6.63;;;2.88;;
35971;SDS011;22052;0.000;0.000;2022-08-19T00:13:58;8.50;;;3.03;;
35971;SDS011;22052;0.000;0.000;2022-08-19T00:16:53;4.70;;;3.03;;
35971;SDS011;22052;0.000;0.000;2022-08-19T00:19:29;7.53;;;3.00;;
35971;SDS011;22052;0.000;0.000;2022-08-19T00:22:03;8.20;;;3.50;;
35971;SDS011;22052;0.000;0.000;2022-08-19T00:24:38;5.72;;;2.88;;
35971;SDS011;22052;0.000;0.000;2022-08-19T00:27:13;5.72;;;2.90;;
35971;SDS011;22052;0.000;0.000;2022-08-19T00:29:44;4.97;;;2.70;;
35971;SDS011;22052;0.000;0.000;2022-08-19T00:32:21;6.63;;;2.88;;
35971;SDS011;22052;0.000;0.000;2022-08-19T00:37:24;7.32;;;2.97;;
35971;SDS011;22052;0.000;0.000;2022-08-19T00:39:58;4.72;;;2.70;;
35971;SDS011;22052;0.000;0.000;2022-08-19T00:42:29;4.50;;;2.58;;
35971;SDS011;22052;0.000;0.000;2022-08-19T00:45:00;5.57;;;2.83;;
35971;SDS011;22052;0.000;0.000;2022-08-19T00:47:32;7.22;;;2.80;;
35971;SDS011;22052;0.000;0.000;2022-08-19T00:50:05;6.93;;;2.70;;
35971;SDS011;22052;0.000;0.000;2022-08-19T00:52:36;7.47;;;2.83;;
35971;SDS011;22052;0.000;0.000;2022-08-19T00:55:13;6.47;;;2.78;;
35971;SDS011;22052;0.000;0.000;2022-08-19T00:57:47;4.55;;;3.03;;
35971;SDS011;22052;0.000;0.000;2022-08-19T01:00:18;4.47;;;2.65;;
35971;SDS011;22052;0.000;0.000;2022-08-19T01:02:58;5.40;;;2.80;;
35971;SDS011;22052;0.000;0.000;2022-08-19T01:05:56;6.68;;;2.95;;
35971;SDS011;22052;0.000;0.000;2022-08-19T01:08:26;4.25;;;2.28;;
35971;SDS011;22052;0.000;0.000;2022-08-19T01:10:56;5.43;;;2.53;;
35971;SDS011;22052;0.000;0.000;2022-08-19T01:13:27;6.97;;;2.80;;
35971;SDS011;22052;0.000;0.000;2022-08-19T01:15:58;5.13;;;2.90;;
35971;SDS011;22052;0.000;0.000;2022-08-19T01:18:40;3.83;;;2.58;;
35971;SDS011;22052;0.000;0.000;2022-08-19T01:24:00;4.55;;;2.50;;
35971;SDS011;22052;0.000;0.000;2022-08-19T01:26:58;5.45;;;2.80;;
35971;SDS011;22052;0.000;0.000;2022-08-19T01:29:52;5.50;;;2.50;;
35971;SDS011;22052;0.000;0.000;2022-08-19T01:32:27;5.82;;;3.05;;
35971;SDS011;22052;0.000;0.000;2022-08-19T01:35:04;5.20;;;2.60;;
35971;SDS011;22052;0.000;0.000;2022-08-19T01:37:48;3.25;;;2.22;;
35971;SDS011;22052;0.000;0.000;2022-08-19T01:40:20;6.50;;;3.28;;
35971;SDS011;22052;0.000;0.000;2022-08-19T01:42:55;5.75;;;2.60;;
35971;SDS011;22052;0.000;0.000;2022-08-19T01:45:27;5.20;;;2.50;;
35971;SDS011;22052;0.000;0.000;2022-08-19T01:47:59;3.38;;;2.22;;
35971;SDS011;22052;0.000;0.000;2022-08-19T01:50:34;4.40;;;2.70;;
35971;SDS011;22052;0.000;0.000;2022-08-19T01:53:05;5.53;;;2.58;;
35971;SDS011;22052;0.000;0.000;2022-08-19T01:55:35;4.38;;;2.60;;
35971;SDS011;22052;0.000;0.000;2022-08-19T01:58:20;5.57;;;2.70;;
35971;SDS011;22052;0.000;0.000;2022-08-19T02:00:57;5.28;;;2.55;;
35971;SDS011;22052;0.000;0.000;2022-08-19T02:03:31;4.10;;;2.78;;
35971;SDS011;22052;0.000;0.000;2022-08-19T02:06:15;4.13;;;2.55;;
35971;SDS011;22052;0.000;0.000;2022-08-19T02:08:45;4.82;;;2.78;;
35971;SDS011;22052;0.000;0.000;2022-08-19T02:11:31;4.97;;;2.85;;
35971;SDS011;22052;0.000;0.000;2022-08-19T02:14:12;4.80;;;2.25;;
35971;SDS011;22052;0.000;0.000;2022-08-19T02:16:51;3.58;;;2.47;;
35971;SDS011;22052;0.000;0.000;2022-08-19T02:19:29;3.58;;;2.28;;
35971;SDS011;22052;0.000;0.000;2022-08-19T02:22:00;5.03;;;2.60;;
35971;SDS011;22052;0.000;0.000;2022-08-19T02:24:33;4.57;;;2.55;;
35971;SDS011;22052;0.000;0.000;2022-08-19T02:27:02;4.40;;;2.67;;
35971;SDS011;22052;0.000;0.000;2022-08-19T02:29:30;3.60;;;2.17;;
35971;SDS011;22052;0.000;0.000;2022-08-19T02:35:22;2.97;;;2.20;;
35971;SDS011;22052;0.000;0.000;2022-08-19T02:37:58;4.15;;;2.20;;
35971;SDS011;22052;0.000;0.000;2022-08-19T02:40:53;4.10;;;2.42;;
35971;SDS011;22052;0.000;0.000;2022-08-19T02:43:29;3.72;;;2.40;;
35971;SDS011;22052;0.000;0.000;2022-08-19T02:45:58;3.85;;;2.50;;
35971;SDS011;22052;0.000;0.000;2022-08-19T02:48:27;4.97;;;2.70;;
35971;SDS011;22052;0.000;0.000;2022-08-19T03:03:31;4.55;;;2.35;;
35971;SDS011;22052;0.000;0.000;2022-08-19T03:06:09;4.95;;;2.13;;
35971;SDS011;22052;0.000;0.000;2022-08-19T03:08:39;3.33;;;2.17;;
35971;SDS011;22052;0.000;0.000;2022-08-19T03:13:47;4.57;;;2.30;;
35971;SDS011;22052;0.000;0.000;2022-08-19T03:16:20;3.10;;;2.08;;
35971;SDS011;22052;0.000;0.000;2022-08-19T03:18:49;4.25;;;2.30;;
35971;SDS011;22052;0.000;0.000;2022-08-19T03:21:21;5.00;;;2.30;;
35971;SDS011;22052;0.000;0.000;2022-08-19T03:23:49;3.10;;;1.73;;
35971;SDS011;22052;0.000;0.000;2022-08-19T03:26:18;3.92;;;2.00;;
35971;SDS011;22052;0.000;0.000;2022-08-19T03:28:45;4.47;;;2.50;;
35971;SDS011;22052;0.000;0.000;2022-08-19T03:31:18;3.15;;;2.00;;
35971;SDS011;22052;0.000;0.000;2022-08-19T03:33:50;3.13;;;2.07;;
35971;SDS011;22052;0.000;0.000;2022-08-19T03:36:20;3.30;;;2.00;;
35971;SDS011;22052;0.000;0.000;2022-08-19T03:38:52;3.05;;;1.77;;
35971;SDS011;22052;0.000;0.000;2022-08-19T03:41:22;4.05;;;2.10;;
35971;SDS011;22052;0.000;0.000;2022-08-19T03:43:58;4.13;;;2.10;;
35971;SDS011;22052;0.000;0.000;2022-08-19T03:46:27;4.13;;;1.70;;
35971;SDS011;22052;0.000;0.000;2022-08-19T03:48:56;4.25;;;2.20;;
35971;SDS011;22052;0.000;0.000;2022-08-19T03:51:27;2.97;;;1.92;;
35971;SDS011;22052;0.000;0.000;2022-08-19T03:54:00;2.75;;;1.70;;
35971;SDS011;22052;0.000;0.000;2022-08-19T03:56:29;3.28;;;1.75;;
35971;SDS011;22052;0.000;0.000;2022-08-19T03:58:59;3.88;;;2.08;;
35971;SDS011;22052;0.000;0.000;2022-08-19T04:01:27;4.88;;;2.10;;
35971;SDS011;22052;0.000;0.000;2022-08-19T04:04:01;4.55;;;2.17;;
35971;SDS011;22052;0.000;0.000;2022-08-19T04:06:32;3.90;;;2.20;;
35971;SDS011;22052;0.000;0.000;2022-08-19T04:09:01;2.95;;;2.03;;
35971;SDS011;22052;0.000;0.000;2022-08-19T04:11:49;4.53;;;2.13;;
35971;SDS011;22052;0.000;0.000;2022-08-19T04:14:27;3.25;;;1.80;;
35971;SDS011;22052;0.000;0.000;2022-08-19T04:17:01;4.30;;;1.95;;
35971;SDS011;22052;0.000;0.000;2022-08-19T04:19:33;4.00;;;2.08;;
35971;SDS011;22052;0.000;0.000;2022-08-19T04:22:04;3.28;;;1.95;;
35971;SDS011;22052;0.000;0.000;2022-08-19T04:24:32;5.70;;;1.73;;
35971;SDS011;22052;0.000;0.000;2022-08-19T04:27:02;2.92;;;1.85;;
35971;SDS011;22052;0.000;0.000;2022-08-19T04:29:31;4.47;;;2.17;;
35971;SDS011;22052;0.000;0.000;2022-08-19T04:32:00;6.30;;;1.88;;
35971;SDS011;22052;0.000;0.000;2022-08-19T04:37:04;3.05;;;2.00;;
35971;SDS011;22052;0.000;0.000;2022-08-19T04:39:38;3.42;;;2.10;;
35971;SDS011;22052;0.000;0.000;2022-08-19T04:42:34;4.90;;;1.85;;
35971;SDS011;22052;0.000;0.000;2022-08-19T04:45:08;3.33;;;1.88;;
35971;SDS011;22052;0.000;0.000;2022-08-19T04:47:41;6.97;;;1.90;;
35971;SDS011;22052;0.000;0.000;2022-08-19T04:50:11;3.38;;;2.15;;
35971;SDS011;22052;0.000;0.000;2022-08-19T04:52:39;7.13;;;2.00;;
35971;SDS011;22052;0.000;0.000;2022-08-19T04:58:02;4.78;;;2.17;;
35971;SDS011;22052;0.000;0.000;2022-08-19T05:00:32;8.63;;;2.10;;
35971;SDS011;22052;0.000;0.000;2022-08-19T05:03:01;2.42;;;1.73;;
35971;SDS011;22052;0.000;0.000;2022-08-19T05:08:27;2.85;;;1.83;;
35971;SDS011;22052;0.000;0.000;2022-08-19T05:11:06;3.35;;;1.77;;
35971;SDS011;22052;0.000;0.000;2022-08-19T05:13:41;8.13;;;2.00;;
35971;SDS011;22052;0.000;0.000;2022-08-19T05:19:10;5.10;;;1.77;;
35971;SDS011;22052;0.000;0.000;2022-08-19T05:25:10;5.75;;;2.00;;
35971;SDS011;22052;0.000;0.000;2022-08-19T05:27:45;6.00;;;2.03;;
35971;SDS011;22052;0.000;0.000;2022-08-19T05:30:14;8.93;;;1.90;;
35971;SDS011;22052;0.000;0.000;2022-08-19T05:32:48;6.15;;;2.05;;
35971;SDS011;22052;0.000;0.000;2022-08-19T05:35:31;7.03;;;1.75;;
35971;SDS011;22052;0.000;0.000;2022-08-19T05:37:59;9.45;;;1.92;;
35971;SDS011;22052;0.000;0.000;2022-08-19T05:40:38;3.28;;;1.77;;
35971;SDS011;22052;0.000;0.000;2022-08-19T05:43:22;3.45;;;1.67;;
35971;SDS011;22052;0.000;0.000;2022-08-19T05:45:52;5.65;;;2.00;;
35971;SDS011;22052;0.000;0.000;2022-08-19T05:48:24;4.25;;;1.90;;
35971;SDS011;22052;0.000;0.000;2022-08-19T05:50:55;7.13;;;2.00;;
35971;SDS011;22052;0.000;0.000;2022-08-19T05:53:32;4.65;;;1.88;;
35971;SDS011;22052;0.000;0.000;2022-08-19T05:56:03;8.32;;;2.33;;
35971;SDS011;22052;0.000;0.000;2022-08-19T05:58:37;4.25;;;1.70;;
35971;SDS011;22052;0.000;0.000;2022-08-19T06:01:17;4.25;;;1.90;;
35971;SDS011;22052;0.000;0.000;2022-08-19T06:04:00;6.13;;;2.28;;
35971;SDS011;22052;0.000;0.000;2022-08-19T06:09:07;5.05;;;1.83;;
35971;SDS011;22052;0.000;0.000;2022-08-19T06:11:44;4.90;;;1.90;;
35971;SDS011;22052;0.000;0.000;2022-08-19T06:17:22;5.97;;;1.80;;
35971;SDS011;22052;0.000;0.000;2022-08-19T06:19:55;5.50;;;2.22;;
35971;SDS011;22052;0.000;0.000;2022-08-19T06:22:25;3.90;;;1.80;;
35971;SDS011;22052;0.000;0.000;2022-08-19T06:24:54;5.90;;;1.80;;
35971;SDS011;22052;0.000;0.000;2022-08-19T06:27:22;6.75;;;2.08;;
35971;SDS011;22052;0.000;0.000;2022-08-19T06:30:06;5.22;;;2.40;;
35971;SDS011;22052;0.000;0.000;2022-08-19T06:32:38;5.85;;;2.33;;
35971;SDS011;22052;0.000;0.000;2022-08-19T06:35:10;5.25;;;2.33;;
35971;SDS011;22052;0.000;0.000;2022-08-19T06:37:46;6.55;;;2.20;;
35971;SDS011;22052;0.000;0.000;2022-08-19T06:40:20;4.35;;;1.80;;
35971;SDS011;22052;0.000;0.000;2022-08-19T06:42:53;4.80;;;2.10;;
35971;SDS011;22052;0.000;0.000;2022-08-19T06:45:29;4.93;;;2.17;;
35971;SDS011;22052;0.000;0.000;2022-08-19T06:48:01;5.25;;;2.10;;
35971;SDS011;22052;0.000;0.000;2022-08-19T06:50:33;5.20;;;2.05;;
35971;SDS011;22052;0.000;0.000;2022-08-19T06:53:05;4.55;;;2.20;;
35971;SDS011;22052;0.000;0.000;2022-08-19T06:55:39;6.25;;;2.17;;
35971;SDS011;22052;0.000;0.000;2022-08-19T06:58:07;8.13;;;2.15;;
35971;SDS011;22052;0.000;0.000;2022-08-19T07:00:37;8.30;;;2.33;;
35971;SDS011;22052;0.000;0.000;2022-08-19T07:03:18;4.35;;;2.22;;
35971;SDS011;22052;0.000;0.000;2022-08-19T07:05:49;7.18;;;2.20;;
35971;SDS011;22052;0.000;0.000;2022-08-19T07:08:21;10.73;;;2.10;;
35971;SDS011;22052;0.000;0.000;2022-08-19T07:10:52;5.13;;;2.40;;
35971;SDS011;22052;0.000;0.000;2022-08-19T07:13:20;8.23;;;2.50;;
35971;SDS011;22052;0.000;0.000;2022-08-19T07:18:54;7.68;;;2.22;;
35971;SDS011;22052;0.000;0.000;2022-08-19T07:21:24;7.82;;;2.35;;
35971;SDS011;22052;0.000;0.000;2022-08-19T07:23:56;8.00;;;2.22;;
35971;SDS011;22052;0.000;0.000;2022-08-19T07:26:26;7.97;;;2.50;;
35971;SDS011;22052;0.000;0.000;2022-08-19T07:29:02;9.25;;;2.50;;
35971;SDS011;22052;0.000;0.000;2022-08-19T07:31:30;11.23;;;2.92;;
35971;SDS011;22052;0.000;0.000;2022-08-19T07:34:02;4.90;;;2.22;;
35971;SDS011;22052;0.000;0.000;2022-08-19T07:36:37;6.47;;;2.30;;
35971;SDS011;22052;0.000;0.000;2022-08-19T07:39:16;6.13;;;2.50;;
35971;SDS011;22052;0.000;0.000;2022-08-19T07:41:46;7.00;;;2.10;;
35971;SDS011;22052;0.000;0.000;2022-08-19T07:44:20;8.77;;;2.55;;
35971;SDS011;22052;0.000;0.000;2022-08-19T07:49:20;10.60;;;2.70;;
35971;SDS011;22052;0.000;0.000;2022-08-19T07:51:51;4.80;;;2.20;;
35971;SDS011;22052;0.000;0.000;2022-08-19T07:54:36;8.05;;;2.83;;
35971;SDS011;22052;0.000;0.000;2022-08-19T08:00:06;5.35;;;2.38;;
35971;SDS011;22052;0.000;0.000;2022-08-19T08:02:35;7.38;;;2.50;;
35971;SDS011;22052;0.000;0.000;2022-08-19T08:05:06;5.25;;;2.00;;
35971;SDS011;22052;0.000;0.000;2022-08-19T08:07:59;9.02;;;2.65;;
35971;SDS011;22052;0.000;0.000;2022-08-19T08:10:55;9.25;;;2.33;;
35971;SDS011;22052;0.000;0.000;2022-08-19T08:13:26;9.57;;;3.50;;
35971;SDS011;22052;0.000;0.000;2022-08-19T08:15:58;7.03;;;2.40;;
35971;SDS011;22052;0.000;0.000;2022-08-19T08:21:38;14.98;;;3.38;;
35971;SDS011;22052;0.000;0.000;2022-08-19T08:24:11;7.88;;;2.35;;
35971;SDS011;22052;0.000;0.000;2022-08-19T08:26:46;8.43;;;2.30;;
35971;SDS011;22052;0.000;0.000;2022-08-19T08:29:17;5.70;;;2.10;;
35971;SDS011;22052;0.000;0.000;2022-08-19T08:31:46;11.27;;;2.67;;
35971;SDS011;22052;0.000;0.000;2022-08-19T08:34:16;7.28;;;2.55;;
35971;SDS011;22052;0.000;0.000;2022-08-19T08:36:46;7.05;;;2.45;;
35971;SDS011;22052;0.000;0.000;2022-08-19T08:39:18;5.68;;;1.98;;
35971;SDS011;22052;0.000;0.000;2022-08-19T08:47:12;10.20;;;2.72;;
35971;SDS011;22052;0.000;0.000;2022-08-19T08:52:43;9.40;;;2.50;;
35971;SDS011;22052;0.000;0.000;2022-08-19T08:55:32;7.78;;;2.50;;
35971;SDS011;22052;0.000;0.000;2022-08-19T08:58:20;5.60;;;2.05;;
35971;SDS011;22052;0.000;0.000;2022-08-19T09:01:29;8.50;;;2.95;;
35971;SDS011;22052;0.000;0.000;2022-08-19T09:04:03;17.02;;;2.70;;
35971;SDS011;22052;0.000;0.000;2022-08-19T09:10:04;7.32;;;2.15;;
35971;SDS011;22052;0.000;0.000;2022-08-19T09:18:43;12.98;;;2.50;;
35971;SDS011;22052;0.000;0.000;2022-08-19T09:21:19;7.45;;;2.35;;
35971;SDS011;22052;0.000;0.000;2022-08-19T09:23:50;6.97;;;2.30;;
35971;SDS011;22052;0.000;0.000;2022-08-19T09:26:27;6.40;;;2.20;;
35971;SDS011;22052;0.000;0.000;2022-08-19T09:29:29;4.53;;;2.05;;
35971;SDS011;22052;0.000;0.000;2022-08-19T09:32:19;8.95;;;2.28;;
35971;SDS011;22052;0.000;0.000;2022-08-19T09:35:10;5.43;;;2.20;;
35971;SDS011;22052;0.000;0.000;2022-08-19T09:37:41;7.25;;;2.40;;
35971;SDS011;22052;0.000;0.000;2022-08-19T09:43:12;6.05;;;2.10;;
35971;SDS011;22052;0.000;0.000;2022-08-19T09:46:12;9.32;;;2.67;;
35971;SDS011;22052;0.000;0.000;2022-08-19T09:48:49;6.45;;;2.20;;
35971;SDS011;22052;0.000;0.000;2022-08-19T09:51:27;6.93;;;2.35;;
35971;SDS011;22052;0.000;0.000;2022-08-19T09:54:17;9.38;;;2.55;;
35971;SDS011;22052;0.000;0.000;2022-08-19T09:56:52;6.28;;;2.45;;
35971;SDS011;22052;0.000;0.000;2022-08-19T09:59:27;6.75;;;2.28;;
35971;SDS011;22052;0.000;0.000;2022-08-19T10:02:10;6.88;;;2.47;;
35971;SDS011;22052;0.000;0.000;2022-08-19T10:05:09;9.00;;;2.40;;
35971;SDS011;22052;0.000;0.000;2022-08-19T10:07:56;6.45;;;2.50;;
35971;SDS011;22052;0.000;0.000;2022-08-19T10:10:37;8.98;;;2.63;;
35971;SDS011;22052;0.000;0.000;2022-08-19T10:13:05;8.07;;;2.55;;
35971;SDS011;22052;0.000;0.000;2022-08-19T10:15:40;10.73;;;2.50;;
35971;SDS011;22052;0.000;0.000;2022-08-19T10:18:13;5.88;;;2.35;;
35971;SDS011;22052;0.000;0.000;2022-08-19T10:20:45;8.25;;;2.60;;
35971;SDS011;22052;0.000;0.000;2022-08-19T10:23:17;8.18;;;2.72;;
35971;SDS011;22052;0.000;0.000;2022-08-19T10:25:50;10.13;;;3.53;;
35971;SDS011;22052;0.000;0.000;2022-08-19T10:28:26;8.52;;;2.83;;
35971;SDS011;22052;0.000;0.000;2022-08-19T10:31:03;10.73;;;2.80;;
35971;SDS011;22052;0.000;0.000;2022-08-19T10:33:40;9.10;;;2.50;;
35971;SDS011;22052;0.000;0.000;2022-08-19T10:36:12;8.90;;;2.50;;
35971;SDS011;22052;0.000;0.000;2022-08-19T10:38:44;6.63;;;2.50;;
35971;SDS011;22052;0.000;0.000;2022-08-19T10:41:20;6.88;;;2.65;;
35971;SDS011;22052;0.000;0.000;2022-08-19T10:43:56;8.50;;;2.67;;
35971;SDS011;22052;0.000;0.000;2022-08-19T10:46:29;9.02;;;2.72;;
35971;SDS011;22052;0.000;0.000;2022-08-19T10:49:04;5.32;;;2.65;;
35971;SDS011;22052;0.000;0.000;2022-08-19T10:51:41;10.70;;;3.17;;
35971;SDS011;22052;0.000;0.000;2022-08-19T10:54:29;13.35;;;3.38;;
35971;SDS011;22052;0.000;0.000;2022-08-19T10:57:30;7.45;;;2.67;;
35971;SDS011;22052;0.000;0.000;2022-08-19T11:00:07;6.78;;;2.40;;
35971;SDS011;22052;0.000;0.000;2022-08-19T11:02:57;7.18;;;2.40;;
35971;SDS011;22052;0.000;0.000;2022-08-19T11:05:27;9.50;;;2.67;;
35971;SDS011;22052;0.000;0.000;2022-08-19T11:07:58;8.32;;;2.20;;
35971;SDS011;22052;0.000;0.000;2022-08-19T11:10:31;8.80;;;2.42;;
35971;SDS011;22052;0.000;0.000;2022-08-19T11:13:06;10.82;;;2.45;;
35971;SDS011;22052;0.000;0.000;2022-08-19T11:15:39;6.82;;;2.58;;
35971;SDS011;22052;0.000;0.000;2022-08-19T11:18:08;12.10;;;2.78;;
35971;SDS011;22052;0.000;0.000;2022-08-19T11:20:38;10.35;;;2.35;;
35971;SDS011;22052;0.000;0.000;2022-08-19T11:23:08;7.78;;;2.22;;
35971;SDS011;22052;0.000;0.000;2022-08-19T11:25:38;11.40;;;2.90;;
35971;SDS011;22052;0.000;0.000;2022-08-19T11:28:15;5.43;;;2.30;;
35971;SDS011;22052;0.000;0.000;2022-08-19T11:30:47;5.55;;;2.60;;
35971;SDS011;22052;0.000;0.000;2022-08-19T11:33:16;8.68;;;2.55;;
35971;SDS011;22052;0.000;0.000;2022-08-19T11:35:44;7.90;;;2.50;;
35971;SDS011;22052;0.000;0.000;2022-08-19T11:38:13;7.70;;;2.30;;
35971;SDS011;22052;0.000;0.000;2022-08-19T11:40:44;8.57;;;2.67;;
35971;SDS011;22052;0.000;0.000;2022-08-19T11:43:16;7.80;;;2.65;;
35971;SDS011;22052;0.000;0.000;2022-08-19T11:45:55;7.53;;;2.50;;
35971;SDS011;22052;0.000;0.000;2022-08-19T11:48:26;6.68;;;2.50;;
35971;SDS011;22052;0.000;0.000;2022-08-19T11:51:15;12.48;;;2.72;;
35971;SDS011;22052;0.000;0.000;2022-08-19T11:53:53;10.60;;;2.90;;
35971;SDS011;22052;0.000;0.000;2022-08-19T11:56:29;11.77;;;3.08;;
35971;SDS011;22052;0.000;0.000;2022-08-19T11:58:57;10.35;;;3.10;;
35971;SDS011;22052;0.000;0.000;2022-08-19T12:04:18;9.55;;;3.10;;
35971;SDS011;22052;0.000;0.000;2022-08-19T12:06:50;10.27;;;2.58;;
35971;SDS011;22052;0.000;0.000;2022-08-19T12:09:28;11.20;;;2.63;;
35971;SDS011;22052;0.000;0.000;2022-08-19T12:12:03;8.77;;;2.83;;
35971;SDS011;22052;0.000;0.000;2022-08-19T12:17:05;9.60;;;2.90;;
35971;SDS011;22052;0.000;0.000;2022-08-19T12:19:56;7.63;;;2.75;;
35971;SDS011;22052;0.000;0.000;2022-08-19T12:22:55;10.05;;;2.63;;
35971;SDS011;22052;0.000;0.000;2022-08-19T12:25:55;11.00;;;2.67;;
35971;SDS011;22052;0.000;0.000;2022-08-19T12:28:28;5.60;;;2.28;;
35971;SDS011;22052;0.000;0.000;2022-08-19T12:31:03;7.13;;;3.15;;
35971;SDS011;22052;0.000;0.000;2022-08-19T12:33:32;8.95;;;2.80;;
35971;SDS011;22052;0.000;0.000;2022-08-19T12:36:05;10.52;;;3.25;;
35971;SDS011;22052;0.000;0.000;2022-08-19T12:41:51;6.95;;;2.38;;
35971;SDS011;22052;0.000;0.000;2022-08-19T12:44:19;10.15;;;2.67;;
35971;SDS011;22052;0.000;0.000;2022-08-19T12:46:56;9.80;;;2.58;;
35971;SDS011;22052;0.000;0.000;2022-08-19T12:52:34;12.68;;;3.00;;
35971;SDS011;22052;0.000;0.000;2022-08-19T12:55:22;8.70;;;2.88;;
35971;SDS011;22052;0.000;0.000;2022-08-19T12:57:55;5.85;;;2.58;;
35971;SDS011;22052;0.000;0.000;2022-08-19T13:00:27;8.73;;;2.50;;
35971;SDS011;22052;0.000;0.000;2022-08-19T13:03:08;9.05;;;2.65;;
35971;SDS011;22052;0.000;0.000;2022-08-19T13:05:47;10.60;;;2.80;;
35971;SDS011;22052;0.000;0.000;2022-08-19T13:08:27;4.95;;;2.40;;
35971;SDS011;22052;0.000;0.000;2022-08-19T13:11:19;7.25;;;2.72;;
35971;SDS011;22052;0.000;0.000;2022-08-19T13:13:52;8.73;;;3.10;;
35971;SDS011;22052;0.000;0.000;2022-08-19T13:16:48;6.30;;;2.78;;
35971;SDS011;22052;0.000;0.000;2022-08-19T13:19:19;12.82;;;3.00;;
35971;SDS011;22052;0.000;0.000;2022-08-19T13:21:50;10.15;;;3.30;;
35971;SDS011;22052;0.000;0.000;2022-08-19T13:24:20;10.23;;;2.88;;
35971;SDS011;22052;0.000;0.000;2022-08-19T13:26:48;11.43;;;3.00;;
35971;SDS011;22052;0.000;0.000;2022-08-19T13:29:17;11.05;;;2.90;;
35971;SDS011;22052;0.000;0.000;2022-08-19T13:32:03;14.20;;;3.28;;
35971;SDS011;22052;0.000;0.000;2022-08-19T13:34:52;10.63;;;3.00;;
35971;SDS011;22052;0.000;0.000;2022-08-19T13:37:45;10.55;;;3.15;;
35971;SDS011;22052;0.000;0.000;2022-08-19T13:40:16;10.93;;;3.20;;
35971;SDS011;22052;0.000;0.000;2022-08-19T13:42:46;12.93;;;3.10;;
35971;SDS011;22052;0.000;0.000;2022-08-19T13:45:21;13.98;;;3.03;;
35971;SDS011;22052;0.000;0.000;2022-08-19T13:48:00;11.60;;;3.30;;
35971;SDS011;22052;0.000;0.000;2022-08-19T13:50:30;8.50;;;3.67;;
35971;SDS011;22052;0.000;0.000;2022-08-19T13:53:03;13.13;;;3.15;;
35971;SDS011;22052;0.000;0.000;2022-08-19T13:56:01;8.00;;;2.95;;
35971;SDS011;22052;0.000;0.000;2022-08-19T13:58:38;8.38;;;3.08;;
35971;SDS011;22052;0.000;0.000;2022-08-19T14:01:06;12.55;;;3.28;;
35971;SDS011;22052;0.000;0.000;2022-08-19T14:03:33;17.35;;;3.60;;
35971;SDS011;22052;0.000;0.000;2022-08-19T14:06:04;11.23;;;3.10;;
35971;SDS011;22052;0.000;0.000;2022-08-19T14:08:33;15.80;;;3.78;;
35971;SDS011;22052;0.000;0.000;2022-08-19T14:11:05;8.95;;;3.15;;
35971;SDS011;22052;0.000;0.000;2022-08-19T14:13:38;12.93;;;3.92;;
35971;SDS011;22052;0.000;0.000;2022-08-19T14:18:59;13.10;;;3.45;;
35971;SDS011;22052;0.000;0.000;2022-08-19T14:21:33;10.18;;;3.53;;
35971;SDS011;22052;0.000;0.000;2022-08-19T14:26:31;12.02;;;3.10;;
35971;SDS011;22052;0.000;0.000;2022-08-19T14:29:02;11.70;;;3.35;;
35971;SDS011;22052;0.000;0.000;2022-08-19T14:31:38;14.45;;;3.50;;
35971;SDS011;22052;0.000;0.000;2022-08-19T14:34:12;13.38;;;3.13;;
35971;SDS011;22052;0.000;0.000;2022-08-19T14:36:41;13.23;;;3.72;;
35971;SDS011;22052;0.000;0.000;2022-08-19T14:39:11;11.13;;;3.25;;
35971;SDS011;22052;0.000;0.000;2022-08-19T14:42:10;10.07;;;3.33;;
35971;SDS011;22052;0.000;0.000;2022-08-19T14:44:47;12.25;;;3.22;;
35971;SDS011;22052;0.000;0.000;2022-08-19T14:47:20;13.43;;;3.30;;
35971;SDS011;22052;0.000;0.000;2022-08-19T14:49:48;8.88;;;3.20;;
35971;SDS011;22052;0.000;0.000;2022-08-19T14:52:19;11.60;;;3.30;;
35971;SDS011;22052;0.000;0.000;2022-08-19T14:55:15;15.18;;;3.70;;
35971;SDS011;22052;0.000;0.000;2022-08-19T14:57:51;16.58;;;3.90;;
35971;SDS011;22052;0.000;0.000;2022-08-19T15:00:22;11.73;;;3.33;;
35971;SDS011;22052;0.000;0.000;2022-08-19T15:03:07;16.50;;;3.78;;
35971;SDS011;22052;0.000;0.000;2022-08-19T15:05:38;12.32;;;4.05;;
35971;SDS011;22052;0.000;0.000;2022-08-19T15:08:06;12.48;;;3.47;;
35971;SDS011;22052;0.000;0.000;2022-08-19T15:10:41;12.68;;;3.67;;
35971;SDS011;22052;0.000;0.000;2022-08-19T15:13:21;12.55;;;3.70;;
35971;SDS011;22052;0.000;0.000;2022-08-19T15:15:56;11.02;;;3.90;;
35971;SDS011;22052;0.000;0.000;2022-08-19T15:18:24;16.50;;;4.20;;
35971;SDS011;22052;0.000;0.000;2022-08-19T15:20:52;11.85;;;3.60;;
35971;SDS011;22052;0.000;0.000;2022-08-19T15:23:45;12.48;;;3.78;;
35971;SDS011;22052;0.000;0.000;2022-08-19T15:26:16;9.70;;;4.05;;
35971;SDS011;22052;0.000;0.000;2022-08-19T15:28:54;17.45;;;3.92;;
35971;SDS011;22052;0.000;0.000;2022-08-19T15:31:33;18.02;;;3.53;;
35971;SDS011;22052;0.000;0.000;2022-08-19T15:34:02;11.88;;;3.85;;
35971;SDS011;22052;0.000;0.000;2022-08-19T15:36:31;16.98;;;3.45;;
35971;SDS011;22052;0.000;0.000;2022-08-19T15:39:01;10.57;;;3.55;;
35971;SDS011;22052;0.000;0.000;2022-08-19T15:41:30;16.05;;;3.88;;
35971;SDS011;22052;0.000;0.000;2022-08-19T15:44:03;10.73;;;3.97;;
35971;SDS011;22052;0.000;0.000;2022-08-19T15:46:35;11.77;;;3.88;;
35971;SDS011;22052;0.000;0.000;2022-08-19T15:49:02;11.20;;;3.55;;
35971;SDS011;22052;0.000;0.000;2022-08-19T15:51:32;13.75;;;3.70;;
35971;SDS011;22052;0.000;0.000;2022-08-19T15:56:31;12.30;;;4.00;;
35971;SDS011;22052;0.000;0.000;2022-08-19T15:59:19;13.05;;;3.80;;
35971;SDS011;22052;0.000;0.000;2022-08-19T16:02:09;12.73;;;4.10;;
35971;SDS011;22052;0.000;0.000;2022-08-19T16:04:54;14.38;;;3.67;;
35971;SDS011;22052;0.000;0.000;2022-08-19T16:07:43;14.15;;;3.83;;
35971;SDS011;22052;0.000;0.000;2022-08-19T16:10:16;13.80;;;3.90;;
35971;SDS011;22052;0.000;0.000;2022-08-19T16:12:45;12.75;;;3.95;;
35971;SDS011;22052;0.000;0.000;2022-08-19T16:15:14;10.90;;;3.88;;
35971;SDS011;22052;0.000;0.000;2022-08-19T16:17:44;10.80;;;3.72;;
35971;SDS011;22052;0.000;0.000;2022-08-19T16:20:13;11.88;;;3.47;;
35971;SDS011;22052;0.000;0.000;2022-08-19T16:22:42;12.75;;;3.95;;
35971;SDS011;22052;0.000;0.000;2022-08-19T16:25:11;14.70;;;3.80;;
35971;SDS011;22052;0.000;0.000;2022-08-19T16:27:40;9.63;;;3.80;;
35971;SDS011;22052;0.000;0.000;2022-08-19T16:30:10;12.52;;;3.80;;
35971;SDS011;22052;0.000;0.000;2022-08-19T16:32:42;10.60;;;3.90;;
35971;SDS011;22052;0.000;0.000;2022-08-19T16:35:11;11.43;;;3.67;;
35971;SDS011;22052;0.000;0.000;2022-08-19T16:37:44;10.00;;;3.28;;
35971;SDS011;22052;0.000;0.000;2022-08-19T16:40:21;10.50;;;3.65;;
35971;SDS011;22052;0.000;0.000;2022-08-19T16:42:57;15.32;;;4.18;;
35971;SDS011;22052;0.000;0.000;2022-08-19T16:45:38;9.25;;;3.30;;
35971;SDS011;22052;0.000;0.000;2022-08-19T16:48:10;10.93;;;3.50;;
35971;SDS011;22052;0.000;0.000;2022-08-19T16:50:39;13.98;;;3.50;;
35971;SDS011;22052;0.000;0.000;2022-08-19T16:53:10;11.48;;;3.83;;
35971;SDS011;22052;0.000;0.000;2022-08-19T16:55:38;10.88;;;3.28;;
35971;SDS011;22052;0.000;0.000;2022-08-19T16:58:07;9.75;;;3.42;;
35971;SDS011;22052;0.000;0.000;2022-08-19T17:00:45;14.07;;;3.40;;
35971;SDS011;22052;0.000;0.000;2022-08-19T17:03:16;9.30;;;3.35;;
35971;SDS011;22052;0.000;0.000;2022-08-19T17:05:45;10.18;;;3.00;;
35971;SDS011;22052;0.000;0.000;2022-08-19T17:08:17;11.25;;;3.30;;
35971;SDS011;22052;0.000;0.000;2022-08-19T17:14:04;11.35;;;3.35;;
35971;SDS011;22052;0.000;0.000;2022-08-19T17:16:40;10.65;;;3.13;;
35971;SDS011;22052;0.000;0.000;2022-08-19T17:19:09;6.68;;;2.88;;
35971;SDS011;22052;0.000;0.000;2022-08-19T17:37:29;10.52;;;3.10;;
35971;SDS011;22052;0.000;0.000;2022-08-19T17:39:58;7.30;;;3.20;;